createdAt,value
2023-04-29T00:01:06.823Z,99.90
2023-04-29T00:03:35.344Z,99.90
2023-04-29T00:06:03.933Z,99.90
2023-04-29T00:08:33.527Z,99.90
2023-04-29T00:11:01.889Z,99.90
2023-04-29T00:13:30.106Z,99.90
2023-04-29T00:15:58.495Z,99.90
2023-04-29T00:18:27.940Z,99.90
2023-04-29T00:20:56.223Z,99.90
2023-04-29T00:23:24.579Z,99.90
2023-04-29T00:25:54.345Z,99.90
2023-04-29T00:28:22.551Z,99.90
2023-04-29T00:30:51.155Z,99.90
2023-04-29T00:33:19.364Z,99.90
2023-04-29T00:35:48.065Z,99.90
2023-04-29T00:38:16.391Z,99.90
2023-04-29T00:40:45.386Z,99.90
2023-04-29T00:43:14.993Z,99.90
2023-04-29T00:45:43.642Z,99.90
2023-04-29T00:48:11.851Z,99.90
2023-04-29T00:50:40.160Z,99.90
2023-04-29T00:53:08.677Z,99.90
2023-04-29T00:55:38.037Z,99.90
2023-04-29T00:58:06.444Z,99.90
2023-04-29T01:00:36.812Z,99.90
2023-04-29T01:03:06.495Z,99.90
2023-04-29T01:05:35.012Z,99.90
2023-04-29T01:08:17.114Z,99.90
2023-04-29T01:10:54.294Z,99.90
2023-04-29T01:13:31.490Z,99.90
2023-04-29T01:16:05.650Z,99.90
2023-04-29T01:18:37.916Z,99.90
2023-04-29T01:21:06.746Z,99.90
2023-04-29T01:23:36.589Z,99.90
2023-04-29T01:26:05.848Z,99.90
2023-04-29T01:29:00.705Z,99.90
2023-04-29T01:31:33.511Z,99.90
2023-04-29T01:34:11.262Z,99.90
2023-04-29T01:36:48.204Z,99.90
2023-04-29T01:39:22.691Z,99.90
2023-04-29T01:42:04.595Z,99.90
2023-04-29T01:44:35.027Z,99.90
2023-04-29T01:47:04.305Z,99.90
2023-04-29T01:49:39.619Z,99.90
2023-04-29T01:52:08.299Z,99.90
2023-04-29T01:54:39.989Z,99.90
2023-04-29T01:57:09.177Z,99.90
2023-04-29T01:59:49.509Z,99.90
2023-04-29T02:02:37.843Z,99.90
2023-04-29T02:05:16.420Z,99.90
2023-04-29T02:07:52.435Z,99.90
2023-04-29T02:10:22.694Z,99.90
2023-04-29T02:12:56.102Z,99.90
2023-04-29T02:15:28.704Z,99.90
2023-04-29T02:17:57.063Z,99.90
2023-04-29T02:20:25.511Z,99.90
2023-04-29T02:22:53.927Z,99.90
2023-04-29T02:25:23.519Z,99.90
2023-04-29T02:27:51.833Z,99.90
2023-04-29T02:30:20.310Z,99.90
2023-04-29T02:32:48.682Z,99.90
2023-04-29T02:35:17.096Z,99.90
2023-04-29T02:37:45.679Z,99.90
2023-04-29T02:40:14.416Z,99.90
2023-04-29T02:42:44.443Z,99.90
2023-04-29T02:45:13.109Z,99.90
2023-04-29T02:47:41.364Z,99.90
2023-04-29T02:50:10.100Z,99.90
2023-04-29T03:42:47.476Z,99.90
2023-04-29T03:45:18.298Z,99.90
2023-04-29T03:47:46.905Z,99.90
2023-04-29T03:50:15.208Z,99.90
2023-04-29T03:52:43.668Z,99.90
2023-04-29T03:55:15.725Z,99.90
2023-04-29T03:57:45.364Z,99.90
2023-04-29T04:00:17.037Z,99.90
2023-04-29T04:02:47.878Z,99.90
2023-04-29T04:05:19.397Z,99.90
2023-04-29T04:07:51.552Z,99.90
2023-04-29T04:10:39.665Z,99.90
2023-04-29T04:13:18.589Z,99.90
2023-04-29T04:15:52.285Z,99.90
2023-04-29T04:18:21.233Z,99.90
2023-04-29T04:20:49.448Z,99.90
2023-04-29T04:23:18.137Z,99.90
2023-04-29T04:25:47.563Z,99.90
2023-04-29T04:28:35.832Z,99.90
2023-04-29T04:31:11.355Z,99.90
2023-04-29T04:33:40.099Z,99.90
2023-04-29T04:36:08.583Z,99.90
2023-04-29T04:38:37.072Z,99.90
2023-04-29T04:41:09.869Z,99.90
2023-04-29T04:43:41.533Z,99.90
2023-04-29T04:46:18.255Z,99.90
2023-04-29T04:49:07.715Z,99.90
2023-04-29T04:51:44.660Z,99.90
2023-04-29T04:54:13.557Z,99.90
2023-04-29T04:56:41.910Z,99.90
2023-04-29T04:59:10.978Z,99.90
2023-04-29T05:01:42.478Z,99.90
2023-04-29T05:04:11.071Z,99.90
2023-04-29T05:06:39.349Z,99.90
2023-04-29T05:09:07.658Z,99.90
2023-04-29T05:11:36.881Z,99.90
2023-04-29T05:14:10.346Z,99.90
2023-04-29T05:16:38.731Z,99.90
2023-04-29T05:19:09.619Z,99.90
2023-04-29T05:21:40.874Z,99.90
2023-04-29T05:24:11.439Z,99.90
2023-04-29T05:26:40.543Z,99.90
2023-04-29T05:29:08.986Z,99.90
2023-04-29T05:31:47.713Z,99.90
2023-04-29T05:34:17.338Z,99.90
2023-04-29T05:36:45.716Z,99.90
2023-04-29T05:39:14.654Z,99.90
2023-04-29T05:41:43.575Z,99.90
2023-04-29T05:44:17.629Z,99.90
2023-04-29T05:46:48.762Z,99.90
2023-04-29T05:49:19.182Z,99.90
2023-04-29T05:51:48.000Z,99.90
2023-04-29T05:54:16.562Z,99.90
2023-04-29T05:56:46.491Z,99.90
2023-04-29T05:59:15.231Z,99.90
2023-04-29T06:01:49.361Z,99.90
2023-04-29T06:04:19.362Z,99.90
2023-04-29T06:07:09.102Z,99.90
2023-04-29T06:09:50.825Z,99.90
2023-04-29T06:12:19.435Z,99.90
2023-04-29T06:14:50.356Z,99.90
2023-04-29T06:17:18.637Z,99.90
2023-04-29T06:19:48.227Z,99.90
2023-04-29T06:22:16.594Z,99.90
2023-04-29T06:24:50.704Z,99.90
2023-04-29T06:27:28.163Z,99.90
2023-04-29T06:29:57.148Z,99.90
2023-04-29T06:32:25.620Z,99.90
2023-04-29T06:34:55.427Z,99.90
2023-04-29T06:37:30.309Z,99.90
2023-04-29T06:40:18.592Z,99.90
2023-04-29T06:43:06.857Z,99.90
2023-04-29T06:45:55.049Z,99.90
2023-04-29T06:48:33.827Z,99.90
2023-04-29T06:51:04.418Z,99.90
2023-04-29T06:53:36.192Z,99.90
2023-04-29T06:56:05.702Z,99.90
2023-04-29T06:58:33.994Z,99.90
2023-04-29T07:01:04.022Z,99.90
2023-04-29T07:03:32.571Z,99.90
2023-04-29T07:06:01.274Z,99.90
2023-04-29T07:08:30.836Z,99.90
2023-04-29T07:11:00.068Z,99.90
2023-04-29T07:13:28.653Z,99.90
2023-04-29T07:15:57.271Z,99.90
2023-04-29T07:18:25.661Z,99.90
2023-04-29T07:20:55.729Z,99.90
2023-04-29T07:23:24.224Z,99.90
2023-04-29T07:25:54.148Z,99.90
2023-04-29T07:28:22.727Z,99.90
2023-04-29T07:30:54.417Z,99.90
2023-04-29T07:33:22.997Z,99.90
2023-04-29T07:35:51.462Z,99.90
2023-04-29T07:38:21.373Z,99.90
2023-04-29T07:40:49.745Z,99.90
2023-04-29T07:43:21.758Z,99.90
2023-04-29T07:45:51.184Z,99.90
2023-04-29T07:48:21.147Z,99.90
2023-04-29T07:50:49.724Z,99.90
2023-04-29T07:53:19.161Z,99.90
2023-04-29T07:55:47.616Z,99.90
2023-04-29T07:58:15.964Z,99.90
2023-04-29T08:00:47.223Z,99.90
2023-04-29T08:03:16.055Z,99.90
2023-04-29T08:05:45.419Z,99.90
2023-04-29T08:08:17.359Z,99.90
2023-04-29T08:10:45.828Z,99.90
2023-04-29T08:13:14.080Z,99.90
2023-04-29T08:15:42.426Z,99.90
2023-04-29T08:18:14.494Z,99.90
2023-04-29T08:20:42.959Z,99.90
2023-04-29T08:23:11.477Z,99.90
2023-04-29T08:25:43.145Z,99.90
2023-04-29T08:28:11.642Z,99.90
2023-04-29T08:30:41.720Z,99.90
2023-04-29T08:33:13.092Z,99.90
2023-04-29T08:35:42.035Z,99.90
2023-04-29T08:38:11.097Z,99.90
2023-04-29T08:40:45.661Z,99.90
2023-04-29T08:43:15.841Z,99.90
2023-04-29T08:45:44.409Z,99.90
2023-04-29T08:48:14.569Z,99.90
2023-04-29T08:50:44.324Z,99.90
2023-04-29T08:53:14.187Z,99.90
2023-04-29T08:55:43.583Z,99.90
2023-04-29T08:58:13.499Z,99.90
2023-04-29T09:00:43.468Z,99.90
2023-04-29T09:03:21.101Z,99.90
2023-04-29T09:05:54.018Z,99.90
2023-04-29T09:08:24.126Z,99.90
2023-04-29T09:10:53.215Z,99.90
2023-04-29T09:13:25.781Z,99.90
2023-04-29T09:15:54.430Z,99.90
2023-04-29T09:18:46.595Z,99.90
2023-04-29T09:21:22.192Z,99.90
2023-04-29T09:23:53.581Z,99.90
2023-04-29T09:26:22.799Z,99.90
2023-04-29T09:29:09.127Z,99.90
2023-04-29T09:31:38.989Z,85.70
2023-04-29T09:34:09.546Z,64.20
2023-04-29T09:36:44.966Z,41.00
2023-04-29T09:39:15.240Z,29.30
2023-04-29T09:41:58.998Z,25.80
2023-04-29T09:44:30.566Z,25.40
2023-04-29T09:48:14.560Z,21.40
2023-04-29T09:56:00.196Z,30.00
2023-04-29T09:58:36.906Z,1.00
2023-04-29T10:01:06.380Z,24.50
2023-04-29T10:03:37.101Z,1.00
2023-04-29T10:06:07.378Z,1.00
2023-04-29T10:08:36.464Z,1.00
2023-04-29T10:11:06.361Z,1.00
2023-04-29T10:13:38.460Z,1.00
2023-04-29T10:16:18.850Z,1.00
2023-04-29T10:18:53.813Z,1.00
2023-04-29T10:21:28.884Z,1.00
2023-04-29T10:23:59.418Z,1.00
2023-04-29T10:26:31.957Z,1.00
2023-04-29T10:29:01.288Z,1.00
2023-04-29T10:31:30.424Z,1.00
2023-04-29T10:34:00.557Z,1.00
2023-04-29T10:36:32.686Z,1.00
2023-04-29T10:39:03.716Z,1.00
2023-04-29T10:41:38.854Z,1.00
2023-04-29T10:44:07.161Z,1.00
2023-04-29T10:46:35.400Z,1.00
2023-04-29T10:49:06.329Z,1.00
2023-04-29T10:51:36.125Z,1.00
2023-04-29T10:54:08.643Z,1.00
2023-04-29T10:56:40.190Z,1.00
2023-04-29T10:59:14.269Z,1.00
2023-04-29T11:01:46.374Z,11.40
2023-04-29T11:04:15.298Z,30.00
2023-04-29T11:06:47.294Z,45.70
2023-04-29T11:09:21.045Z,59.30
2023-04-29T11:12:00.482Z,67.10
2023-04-29T11:14:31.727Z,81.30
2023-04-29T11:17:01.419Z,91.20
2023-04-29T11:19:33.853Z,90.30
2023-04-29T11:22:11.336Z,95.90
2023-04-29T11:24:54.096Z,99.90
2023-04-29T11:27:26.438Z,99.20
2023-04-29T11:29:59.309Z,99.90
2023-04-29T11:32:29.266Z,99.90
2023-04-29T11:35:08.257Z,99.90
2023-04-29T11:37:37.109Z,87.90
2023-04-29T11:40:07.784Z,81.00
2023-04-29T11:42:41.800Z,83.50
2023-04-29T11:45:10.948Z,67.00
2023-04-29T11:47:43.449Z,67.50
2023-04-29T11:50:12.547Z,67.20
2023-04-29T11:52:41.653Z,69.50
2023-04-29T11:55:11.736Z,77.60
2023-04-29T11:57:42.015Z,91.00
2023-04-29T12:00:12.693Z,92.00
2023-04-29T12:02:44.747Z,98.50
2023-04-29T12:05:15.859Z,99.90
2023-04-29T12:07:44.747Z,99.90
2023-04-29T12:10:13.445Z,99.90
2023-04-29T12:12:45.324Z,99.90
2023-04-29T12:15:14.577Z,99.90
2023-04-29T12:17:43.982Z,99.90
2023-04-29T12:20:13.023Z,99.90
2023-04-29T12:22:43.756Z,99.90
2023-04-29T12:25:12.421Z,99.90
2023-04-29T12:27:43.404Z,99.90
2023-04-29T12:30:13.038Z,99.90
2023-04-29T12:32:42.076Z,93.70
2023-04-29T12:35:17.744Z,93.30
2023-04-29T12:37:50.096Z,92.90
2023-04-29T12:40:20.446Z,61.50
2023-04-29T12:42:50.609Z,66.50
2023-04-29T12:45:34.429Z,67.20
2023-04-29T12:48:08.748Z,42.20
2023-04-29T12:50:41.094Z,25.70
2023-04-29T12:53:11.748Z,31.40
2023-04-29T12:55:40.188Z,29.00
2023-04-29T12:58:10.238Z,27.10
2023-04-29T13:00:38.958Z,23.20
2023-04-29T13:03:07.814Z,26.30
2023-04-29T13:05:36.710Z,31.60
2023-04-29T13:08:06.736Z,31.90
2023-04-29T13:10:35.526Z,36.70
2023-04-29T13:13:03.970Z,59.00
2023-04-29T13:15:34.266Z,66.30
2023-04-29T13:18:02.865Z,55.50
2023-04-29T13:20:31.511Z,67.80
2023-04-29T13:22:59.774Z,60.80
2023-04-29T13:25:28.487Z,62.30
2023-04-29T13:27:56.722Z,52.20
2023-04-29T13:30:25.211Z,50.40
2023-04-29T13:32:58.751Z,57.90
2023-04-29T13:35:35.723Z,62.20
2023-04-29T13:38:04.225Z,62.10
2023-04-29T13:40:38.308Z,66.70
2023-04-29T13:43:09.573Z,55.20
2023-04-29T13:45:42.823Z,60.40
2023-04-29T13:48:26.240Z,57.10
2023-04-29T13:54:17.578Z,40.40
2023-04-29T13:56:58.314Z,29.70
2023-04-29T13:59:40.029Z,29.90
2023-04-29T14:04:35.922Z,31.40
2023-04-29T14:07:04.544Z,34.90
2023-04-29T14:09:33.459Z,41.00
2023-04-29T14:12:02.111Z,46.70
2023-04-29T14:14:30.572Z,58.90
2023-04-29T14:17:01.237Z,77.60
2023-04-29T14:19:29.652Z,90.80
2023-04-29T14:21:59.485Z,93.70
2023-04-29T14:24:27.922Z,94.40
2023-04-29T14:26:56.333Z,99.90
2023-04-29T14:29:24.775Z,99.90
2023-04-29T14:31:53.322Z,99.90
2023-04-29T14:34:21.784Z,99.90
2023-04-29T14:36:50.176Z,99.90
2023-04-29T14:39:19.785Z,99.90
2023-04-29T14:41:48.798Z,99.90
2023-04-29T14:44:17.282Z,99.90
2023-04-29T14:46:46.591Z,99.90
2023-04-29T14:49:18.702Z,99.90
2023-04-29T14:51:47.277Z,99.90
2023-04-29T14:54:16.154Z,99.90
2023-04-29T14:56:45.943Z,99.90
2023-04-29T14:59:14.370Z,99.90
2023-04-29T15:01:42.834Z,99.90
2023-04-29T15:04:12.735Z,99.90
2023-04-29T15:06:41.691Z,99.90
2023-04-29T15:09:10.053Z,99.90
2023-04-29T15:11:38.558Z,99.90
2023-04-29T15:14:08.247Z,99.90
2023-04-29T15:16:37.064Z,99.90
2023-04-29T15:19:05.532Z,99.90
2023-04-29T15:21:34.420Z,99.90
2023-04-29T15:24:03.325Z,91.90
2023-04-29T15:26:31.747Z,88.00
2023-04-29T15:29:00.146Z,92.10
2023-04-29T15:31:30.909Z,86.50
2023-04-29T15:33:59.752Z,82.70
2023-04-29T15:36:30.895Z,85.20
2023-04-29T15:38:59.348Z,87.80
2023-04-29T15:41:28.019Z,91.50
2023-04-29T15:43:58.403Z,98.60
2023-04-29T15:46:27.903Z,98.30
2023-04-29T15:48:57.859Z,99.90
2023-04-29T15:51:26.255Z,99.90
2023-04-29T15:53:54.630Z,99.90
2023-04-29T15:56:22.904Z,99.90
2023-04-29T15:58:51.402Z,99.90
2023-04-29T16:01:19.894Z,99.90
2023-04-29T16:03:48.392Z,99.90
2023-04-29T16:06:18.903Z,99.90
2023-04-29T16:08:47.899Z,99.90
2023-04-29T16:11:16.359Z,99.90
2023-04-29T16:13:44.924Z,99.90
2023-04-29T16:16:14.003Z,99.90
2023-04-29T16:18:42.372Z,99.90
2023-04-29T16:21:10.882Z,99.90
2023-04-29T16:23:41.183Z,99.90
2023-04-29T16:26:10.653Z,99.90
2023-04-29T16:28:40.589Z,99.90
2023-04-29T16:31:09.142Z,99.90
2023-04-29T16:33:37.674Z,99.90
2023-04-29T16:36:06.420Z,99.90
2023-04-29T16:38:34.838Z,99.90
2023-04-29T16:41:06.347Z,99.90
2023-04-29T16:43:35.242Z,99.90
2023-04-29T16:46:03.845Z,99.90
2023-04-29T16:48:32.505Z,99.90
2023-04-29T16:51:01.254Z,99.90
2023-04-29T16:53:29.645Z,99.90
2023-04-29T16:55:58.377Z,99.90
2023-04-29T16:58:30.095Z,99.90
2023-04-29T17:00:58.686Z,99.90
2023-04-29T17:03:27.245Z,99.90
2023-04-29T17:05:56.350Z,99.90
2023-04-29T17:08:26.348Z,99.90
2023-04-29T17:10:56.030Z,99.90
2023-04-29T17:13:25.248Z,99.90
2023-04-29T17:15:55.685Z,99.90
2023-04-29T17:18:24.796Z,99.90
2023-04-29T17:20:53.408Z,99.90
2023-04-29T17:23:21.954Z,99.90
2023-04-29T17:25:51.363Z,99.90
2023-04-29T17:28:19.791Z,99.90
2023-04-29T17:30:48.241Z,99.90
2023-04-29T17:33:17.982Z,99.90
2023-04-29T17:35:46.968Z,99.90
2023-04-29T17:38:16.019Z,99.90
2023-04-29T17:40:44.938Z,99.90
2023-04-29T17:43:13.686Z,99.90
2023-04-29T17:45:42.621Z,99.90
2023-04-29T17:48:11.447Z,99.90
2023-04-29T17:50:41.482Z,99.90
2023-04-29T17:53:09.923Z,99.90
2023-04-29T17:55:39.632Z,99.90
2023-04-29T17:58:08.343Z,99.90
2023-04-29T18:00:37.033Z,99.90
2023-04-29T18:03:06.088Z,99.90
2023-04-29T18:05:34.636Z,99.90
2023-04-29T18:08:04.406Z,99.90
2023-04-29T18:10:33.123Z,99.90
2023-04-29T18:13:03.270Z,99.90
2023-04-29T18:15:31.856Z,99.90
2023-04-29T18:18:00.260Z,99.90
2023-04-29T18:20:28.826Z,99.90
2023-04-29T18:22:57.196Z,99.90
2023-04-29T18:25:27.126Z,99.90
2023-04-29T18:28:07.530Z,99.90
2023-04-29T18:30:45.913Z,99.90
2023-04-29T18:33:14.387Z,99.90
2023-04-29T18:35:43.611Z,99.90
2023-04-29T18:38:14.284Z,99.90
2023-04-29T18:40:44.213Z,99.90
2023-04-29T18:43:15.307Z,99.90
2023-04-29T18:45:45.190Z,99.90
2023-04-29T18:48:14.860Z,99.90
2023-04-29T18:50:43.640Z,99.90
2023-04-29T18:53:11.942Z,99.90
2023-04-29T18:55:40.940Z,99.90
2023-04-29T18:58:11.092Z,99.90
2023-04-29T19:00:39.882Z,99.90
2023-04-29T19:03:08.386Z,99.90
2023-04-29T19:05:37.002Z,99.90
2023-04-29T19:08:05.848Z,99.90
2023-04-29T19:10:34.379Z,99.90
2023-04-29T19:13:02.815Z,99.90
2023-04-29T19:15:32.854Z,99.90
2023-04-29T19:18:01.434Z,99.90
2023-04-29T19:20:30.267Z,99.90
2023-04-29T19:22:58.773Z,99.90
2023-04-29T19:25:27.229Z,99.90
2023-04-29T19:27:56.334Z,99.90
2023-04-29T19:30:24.858Z,99.90
2023-04-29T19:32:55.185Z,99.90
2023-04-29T19:35:23.992Z,99.90
2023-04-29T19:37:54.717Z,99.90
2023-04-29T19:40:23.144Z,99.90
2023-04-29T19:42:51.536Z,99.90
2023-04-29T19:45:20.898Z,99.90
2023-04-29T19:47:50.075Z,99.90
2023-04-29T19:50:20.297Z,99.90
2023-04-29T19:52:49.286Z,99.90
2023-04-29T19:55:18.180Z,99.90
2023-04-29T19:57:46.656Z,99.90
2023-04-29T20:00:15.520Z,99.90
2023-04-29T20:02:44.660Z,99.90
2023-04-29T20:05:13.681Z,99.90
2023-04-29T20:07:43.500Z,99.90
2023-04-29T20:10:12.695Z,99.90
2023-04-29T20:12:41.710Z,99.90
2023-04-29T20:15:11.478Z,99.90
2023-04-29T20:17:40.170Z,99.90
2023-04-29T20:20:09.829Z,99.90
2023-04-29T20:22:38.957Z,99.90
2023-04-29T20:25:08.959Z,99.90
2023-04-29T20:27:37.457Z,99.90
2023-04-29T20:30:06.628Z,99.90
2023-04-29T20:32:35.026Z,99.90
2023-04-29T20:35:03.380Z,99.90
2023-04-29T20:37:32.149Z,99.90
2023-04-29T20:40:00.639Z,99.90
2023-04-29T20:42:30.464Z,99.90
2023-04-29T20:44:59.088Z,99.90
2023-04-29T20:47:27.737Z,99.90
2023-04-29T20:49:56.170Z,99.90
2023-04-29T20:52:27.564Z,99.90
2023-04-29T20:54:55.900Z,99.90
2023-04-29T20:57:24.288Z,99.90
2023-04-29T20:59:54.237Z,99.90
2023-04-29T21:02:22.983Z,99.90
2023-04-29T21:04:51.492Z,99.90
2023-04-29T21:07:19.930Z,99.90
2023-04-29T21:09:48.704Z,99.90
2023-04-29T21:12:17.201Z,99.90
2023-04-29T21:14:45.514Z,99.90
2023-04-29T21:17:16.275Z,99.90
2023-04-29T21:19:44.715Z,99.90
2023-04-29T21:22:13.115Z,99.90
2023-04-29T21:24:41.674Z,99.90
2023-04-29T21:27:10.008Z,99.90
2023-04-29T21:29:40.954Z,99.90
2023-04-29T21:32:09.551Z,99.90
2023-04-29T21:34:39.058Z,99.90
2023-04-29T21:37:07.781Z,99.90
2023-04-29T21:39:36.172Z,99.90
2023-04-29T21:42:04.820Z,99.90
2023-04-29T21:44:34.837Z,99.90
2023-04-29T21:47:04.580Z,99.90
2023-04-29T21:49:33.708Z,99.90
2023-04-29T21:52:03.660Z,99.90
2023-04-29T21:54:32.141Z,99.90
2023-04-29T21:57:01.596Z,99.90
2023-04-29T21:59:34.150Z,99.90
2023-04-29T22:02:05.738Z,99.90
2023-04-29T22:04:34.216Z,99.90
2023-04-29T22:07:04.011Z,99.90
2023-04-29T22:09:32.508Z,99.90
2023-04-29T22:12:02.830Z,99.90
2023-04-29T22:14:31.167Z,99.90
2023-04-29T22:16:59.582Z,99.90
2023-04-29T22:19:30.163Z,99.90
2023-04-29T22:21:58.578Z,99.90
2023-04-29T22:24:28.220Z,99.90
2023-04-29T22:26:57.041Z,99.90
2023-04-29T22:29:25.405Z,99.90
2023-04-29T22:31:53.920Z,99.90
2023-04-29T22:34:22.388Z,99.90
2023-04-29T22:36:50.773Z,99.90
2023-04-29T22:39:19.155Z,99.90
2023-04-29T22:41:48.938Z,99.90
2023-04-29T22:44:17.408Z,99.90
2023-04-29T22:46:45.949Z,99.90
2023-04-29T22:49:14.595Z,99.90
2023-04-29T22:51:43.061Z,99.90
2023-04-29T22:54:11.442Z,99.90
2023-04-29T22:56:39.902Z,99.90
2023-04-29T22:59:09.804Z,99.90
2023-04-29T23:01:38.539Z,99.90
2023-04-29T23:04:06.967Z,99.90
2023-04-29T23:06:35.798Z,99.90
2023-04-29T23:09:04.460Z,99.90
2023-04-29T23:11:33.050Z,99.90
2023-04-29T23:14:01.361Z,99.90
2023-04-29T23:16:31.340Z,99.90
2023-04-29T23:18:59.790Z,99.90
2023-04-29T23:21:28.299Z,99.90
2023-04-29T23:23:56.620Z,99.90
2023-04-29T23:26:25.089Z,99.90
2023-04-29T23:28:53.577Z,99.90
2023-04-29T23:31:21.995Z,99.90
2023-04-29T23:33:51.626Z,99.90
2023-04-29T23:36:20.152Z,99.90
2023-04-29T23:38:48.566Z,99.90
2023-04-29T23:41:17.287Z,99.90
2023-04-29T23:43:45.540Z,99.90
2023-04-29T23:46:14.043Z,99.90
2023-04-29T23:48:42.372Z,99.90
2023-04-29T23:51:12.272Z,99.90
2023-04-29T23:53:40.730Z,99.90
2023-04-29T23:56:09.486Z,99.90
2023-04-29T23:58:37.793Z,99.90
